createdAt,value
2019-02-19T00:01:11.238Z,6.15
2019-02-19T00:03:39.831Z,7.95
2019-02-19T00:06:08.402Z,9.60
2019-02-19T00:08:36.996Z,6.90
2019-02-19T00:11:05.564Z,7.58
2019-02-19T00:13:34.154Z,6.78
2019-02-19T00:16:02.720Z,5.80
2019-02-19T00:18:31.307Z,5.55
2019-02-19T00:20:59.877Z,5.80
2019-02-19T00:23:28.462Z,5.75
2019-02-19T00:25:57.494Z,7.05
2019-02-19T00:28:26.086Z,6.25
2019-02-19T00:30:54.661Z,6.20
2019-02-19T00:33:23.248Z,6.80
2019-02-19T00:35:51.814Z,5.53
2019-02-19T00:38:20.403Z,5.95
2019-02-19T00:40:48.967Z,6.35
2019-02-19T00:43:17.555Z,5.22
2019-02-19T00:45:46.122Z,5.60
2019-02-19T00:48:14.706Z,5.95
2019-02-19T00:50:43.279Z,5.47
2019-02-19T00:53:11.867Z,7.35
2019-02-19T00:55:40.430Z,5.33
2019-02-19T00:58:09.019Z,4.92
2019-02-19T01:00:37.584Z,4.92
2019-02-19T01:03:06.181Z,5.60
2019-02-19T01:05:34.739Z,4.60
2019-02-19T01:08:03.323Z,5.17
2019-02-19T01:10:31.898Z,5.85
2019-02-19T01:13:00.478Z,5.22
2019-02-19T01:15:29.059Z,5.58
2019-02-19T01:17:57.638Z,4.92
2019-02-19T01:20:26.215Z,6.00
2019-02-19T01:22:54.799Z,6.92
2019-02-19T01:25:23.367Z,6.22
2019-02-19T01:27:51.958Z,5.85
2019-02-19T01:30:20.524Z,5.70
2019-02-19T01:32:49.116Z,7.50
2019-02-19T01:35:17.687Z,6.45
2019-02-19T01:37:46.250Z,5.80
2019-02-19T01:40:14.843Z,5.45
2019-02-19T01:42:43.411Z,5.25
2019-02-19T01:45:11.996Z,5.60
2019-02-19T01:47:40.569Z,5.95
2019-02-19T01:50:10.010Z,5.40
2019-02-19T01:52:38.580Z,4.83
2019-02-19T01:55:08.406Z,4.70
2019-02-19T01:57:36.978Z,5.55
2019-02-19T02:00:08.009Z,4.60
2019-02-19T02:02:36.578Z,5.50
2019-02-19T02:05:05.766Z,5.45
2019-02-19T02:07:34.339Z,5.37
2019-02-19T02:10:02.990Z,4.70
2019-02-19T02:12:31.554Z,4.65
2019-02-19T02:15:00.262Z,4.80
2019-02-19T02:17:28.814Z,5.60
2019-02-19T02:19:57.399Z,5.62
2019-02-19T02:22:25.962Z,5.05
2019-02-19T02:24:54.551Z,5.62
2019-02-19T02:27:23.122Z,5.45
2019-02-19T02:29:51.715Z,5.65
2019-02-19T02:32:20.284Z,5.78
2019-02-19T02:34:48.875Z,5.35
2019-02-19T02:37:17.441Z,5.55
2019-02-19T02:39:46.030Z,5.00
2019-02-19T02:42:14.596Z,6.35
2019-02-19T02:44:43.187Z,6.25
2019-02-19T02:47:11.756Z,5.90
2019-02-19T02:49:40.352Z,5.92
2019-02-19T02:52:09.103Z,4.92
2019-02-19T02:54:37.692Z,6.15
2019-02-19T02:57:06.261Z,7.58
2019-02-19T02:59:34.851Z,7.60
2019-02-19T03:02:03.419Z,6.08
2019-02-19T03:04:32.017Z,7.42
2019-02-19T03:07:02.222Z,8.85
2019-02-19T03:09:30.821Z,7.85
2019-02-19T03:11:59.395Z,5.80
2019-02-19T03:14:27.979Z,6.80
2019-02-19T03:16:56.553Z,7.22
2019-02-19T03:19:25.131Z,5.97
2019-02-19T03:21:53.705Z,6.70
2019-02-19T03:24:22.291Z,6.95
2019-02-19T03:26:51.227Z,9.90
2019-02-19T03:29:19.824Z,11.85
2019-02-19T03:31:48.396Z,18.30
2019-02-19T03:34:16.988Z,19.40
2019-02-19T03:36:45.559Z,21.40
2019-02-19T03:39:14.150Z,20.15
2019-02-19T03:41:42.720Z,18.42
2019-02-19T03:44:11.318Z,17.85
2019-02-19T03:46:39.882Z,13.45
2019-02-19T03:49:08.475Z,12.43
2019-02-19T03:51:37.050Z,10.82
2019-02-19T03:54:05.632Z,9.08
2019-02-19T03:56:34.204Z,21.33
2019-02-19T03:59:02.805Z,27.58
2019-02-19T04:01:31.377Z,23.22
2019-02-19T04:03:59.965Z,24.90
2019-02-19T04:06:28.532Z,20.20
2019-02-19T04:08:57.102Z,16.00
2019-02-19T04:11:25.695Z,16.12
2019-02-19T04:13:54.276Z,13.28
2019-02-19T04:16:22.865Z,15.68
2019-02-19T04:18:51.435Z,13.53
2019-02-19T04:21:20.032Z,11.75
2019-02-19T04:23:48.599Z,11.95
2019-02-19T04:26:17.200Z,12.43
2019-02-19T04:28:45.780Z,14.20
2019-02-19T04:31:14.363Z,13.35
2019-02-19T04:33:42.938Z,13.45
2019-02-19T04:36:11.535Z,15.13
2019-02-19T04:38:40.103Z,12.43
2019-02-19T04:41:08.698Z,12.98
2019-02-19T04:43:37.266Z,11.93
2019-02-19T04:46:05.856Z,12.55
2019-02-19T04:48:34.425Z,11.60
2019-02-19T04:51:03.027Z,11.68
2019-02-19T04:53:31.602Z,10.43
2019-02-19T04:56:00.187Z,9.63
2019-02-19T04:58:28.760Z,10.98
2019-02-19T05:00:57.364Z,11.03
2019-02-19T05:03:25.924Z,9.43
2019-02-19T05:05:54.521Z,11.05
2019-02-19T05:08:23.094Z,12.43
2019-02-19T05:10:51.687Z,11.88
2019-02-19T05:13:20.260Z,11.08
2019-02-19T05:15:48.860Z,10.55
2019-02-19T05:18:17.429Z,10.98
2019-02-19T05:20:46.011Z,9.83
2019-02-19T05:23:14.579Z,9.63
2019-02-19T05:25:43.174Z,10.45
2019-02-19T05:28:11.730Z,10.15
2019-02-19T05:30:40.314Z,9.60
2019-02-19T05:33:08.895Z,11.57
2019-02-19T05:35:37.487Z,12.10
2019-02-19T05:38:06.058Z,10.50
2019-02-19T05:40:34.655Z,11.65
2019-02-19T05:43:03.219Z,13.53
2019-02-19T05:45:31.830Z,11.85
2019-02-19T05:48:00.400Z,11.60
2019-02-19T05:50:28.971Z,12.73
2019-02-19T05:52:57.563Z,11.10
2019-02-19T05:55:26.600Z,10.78
2019-02-19T05:57:55.186Z,13.68
2019-02-19T06:00:23.759Z,12.00
2019-02-19T06:02:52.352Z,10.15
2019-02-19T06:05:20.923Z,10.80
2019-02-19T06:07:49.511Z,10.95
2019-02-19T06:10:18.087Z,10.38
2019-02-19T06:12:46.682Z,10.10
2019-02-19T06:15:15.321Z,9.30
2019-02-19T06:17:43.914Z,9.73
2019-02-19T06:20:12.475Z,9.48
2019-02-19T06:22:41.061Z,9.08
2019-02-19T06:25:09.879Z,8.60
2019-02-19T06:27:38.462Z,9.08
2019-02-19T06:30:10.239Z,8.98
2019-02-19T06:32:38.845Z,9.83
2019-02-19T06:35:08.447Z,7.97
2019-02-19T06:37:37.038Z,10.10
2019-02-19T06:40:08.520Z,8.80
2019-02-19T06:42:37.107Z,8.48
2019-02-19T06:45:06.313Z,8.40
2019-02-19T06:47:34.895Z,7.83
2019-02-19T06:50:04.098Z,7.72
2019-02-19T06:52:32.686Z,9.30
2019-02-19T06:55:01.264Z,8.70
2019-02-19T06:57:29.846Z,9.58
2019-02-19T06:59:58.414Z,8.95
2019-02-19T07:02:45.134Z,8.38
2019-02-19T07:05:15.347Z,9.50
2019-02-19T07:07:43.933Z,8.20
2019-02-19T07:10:12.496Z,7.45
2019-02-19T07:12:41.078Z,8.18
2019-02-19T07:15:10.294Z,8.95
2019-02-19T07:17:38.879Z,8.43
2019-02-19T07:20:09.383Z,7.80
2019-02-19T07:22:37.963Z,9.38
2019-02-19T07:25:11.195Z,11.65
2019-02-19T07:27:39.787Z,10.85
2019-02-19T07:30:12.403Z,11.83
2019-02-19T07:32:40.990Z,9.43
2019-02-19T07:35:11.086Z,8.70
2019-02-19T07:37:39.677Z,10.80
2019-02-19T07:40:09.182Z,9.10
2019-02-19T07:42:37.773Z,9.38
2019-02-19T07:45:09.741Z,9.78
2019-02-19T07:47:38.299Z,8.28
2019-02-19T07:50:09.694Z,10.65
2019-02-19T07:52:38.255Z,8.75
2019-02-19T07:55:08.983Z,8.90
2019-02-19T07:57:37.545Z,7.90
2019-02-19T08:00:09.203Z,7.53
2019-02-19T08:02:37.767Z,8.15
2019-02-19T08:05:06.886Z,7.70
2019-02-19T08:07:35.452Z,8.15
2019-02-19T08:10:08.311Z,8.48
2019-02-19T08:12:36.874Z,8.95
2019-02-19T08:15:08.298Z,8.75
2019-02-19T08:17:36.861Z,8.60
2019-02-19T08:20:15.484Z,8.98
2019-02-19T08:22:37.480Z,9.68
2019-02-19T08:25:06.603Z,8.55
2019-02-19T08:27:35.171Z,9.30
2019-02-19T08:30:04.314Z,8.53
2019-02-19T08:32:32.878Z,9.23
2019-02-19T08:35:01.459Z,8.48
2019-02-19T08:37:30.023Z,8.40
2019-02-19T08:39:58.616Z,9.73
2019-02-19T08:42:27.193Z,10.85
2019-02-19T08:44:55.782Z,10.18
2019-02-19T08:47:24.342Z,11.57
2019-02-19T08:49:52.933Z,10.00
2019-02-19T08:52:21.503Z,8.88
2019-02-19T08:54:50.083Z,9.90
2019-02-19T08:57:18.651Z,7.50
2019-02-19T08:59:47.240Z,7.78
2019-02-19T09:02:15.796Z,7.47
2019-02-19T09:04:44.379Z,8.23
2019-02-19T09:07:12.944Z,7.58
2019-02-19T09:09:41.527Z,7.03
2019-02-19T09:12:11.495Z,7.15
2019-02-19T09:14:40.283Z,7.90
2019-02-19T09:17:08.856Z,6.70
2019-02-19T09:19:37.439Z,7.10
2019-02-19T09:22:06.084Z,6.60
2019-02-19T09:24:34.658Z,7.20
2019-02-19T09:27:03.223Z,6.95
2019-02-19T09:29:31.807Z,6.47
2019-02-19T09:32:00.366Z,7.10
2019-02-19T09:34:28.956Z,7.58
2019-02-19T09:36:57.517Z,6.85
2019-02-19T09:39:26.108Z,7.30
2019-02-19T09:41:54.663Z,9.20
2019-02-19T09:44:23.235Z,6.80
2019-02-19T09:46:51.831Z,7.25
2019-02-19T09:49:20.383Z,7.67
2019-02-19T09:51:48.966Z,8.55
2019-02-19T09:54:17.538Z,7.72
2019-02-19T09:56:46.115Z,7.58
2019-02-19T09:59:14.675Z,7.37
2019-02-19T10:01:43.260Z,8.25
2019-02-19T10:04:11.819Z,8.30
2019-02-19T10:06:40.406Z,7.85
2019-02-19T10:09:09.644Z,7.25
2019-02-19T10:11:38.223Z,7.00
2019-02-19T10:14:06.784Z,6.95
2019-02-19T10:16:41.327Z,6.15
2019-02-19T10:19:05.579Z,6.22
2019-02-19T10:21:34.177Z,7.70
2019-02-19T10:24:02.740Z,7.33
2019-02-19T10:26:31.319Z,6.72
2019-02-19T10:28:59.881Z,7.40
2019-02-19T10:31:28.465Z,7.80
2019-02-19T10:33:57.023Z,7.17
2019-02-19T10:36:25.607Z,7.90
2019-02-19T10:38:54.167Z,7.70
2019-02-19T10:41:22.755Z,8.00
2019-02-19T10:43:51.319Z,7.67
2019-02-19T10:46:19.906Z,6.92
2019-02-19T10:48:48.463Z,7.20
2019-02-19T10:51:17.123Z,6.87
2019-02-19T10:53:45.691Z,8.58
2019-02-19T10:56:14.282Z,7.17
2019-02-19T10:58:42.839Z,7.22
2019-02-19T11:01:11.427Z,7.37
2019-02-19T11:03:39.991Z,7.03
2019-02-19T11:06:08.646Z,7.35
2019-02-19T11:08:37.207Z,7.58
2019-02-19T11:11:05.793Z,6.58
2019-02-19T11:13:34.363Z,7.10
2019-02-19T11:16:03.417Z,7.53
2019-02-19T11:18:32.126Z,8.60
2019-02-19T11:21:00.708Z,8.38
2019-02-19T11:23:29.271Z,7.70
2019-02-19T11:25:57.855Z,7.20
2019-02-19T11:28:26.423Z,8.85
2019-02-19T11:30:55.007Z,7.97
2019-02-19T11:33:23.575Z,8.85
2019-02-19T11:35:52.158Z,8.13
2019-02-19T11:38:20.723Z,8.48
2019-02-19T11:40:49.302Z,8.55
2019-02-19T11:43:17.859Z,9.03
2019-02-19T11:45:46.443Z,7.75
2019-02-19T11:48:15.010Z,8.73
2019-02-19T11:50:43.599Z,7.80
2019-02-19T11:53:12.160Z,9.00
2019-02-19T11:55:40.744Z,7.97
2019-02-19T11:58:09.315Z,8.18
2019-02-19T12:00:39.543Z,8.50
2019-02-19T12:03:08.119Z,9.08
2019-02-19T12:05:36.693Z,9.38
2019-02-19T12:08:05.262Z,9.00
2019-02-19T12:10:33.819Z,8.05
2019-02-19T12:13:02.412Z,9.73
2019-02-19T12:15:35.188Z,9.03
2019-02-19T12:18:01.207Z,10.80
2019-02-19T12:20:29.772Z,10.95
2019-02-19T12:22:58.363Z,10.90
2019-02-19T12:25:26.924Z,11.35
2019-02-19T12:27:55.507Z,10.93
2019-02-19T12:30:24.070Z,11.83
2019-02-19T12:32:52.659Z,11.63
2019-02-19T12:35:21.223Z,10.35
2019-02-19T12:37:49.811Z,11.12
2019-02-19T12:40:18.380Z,10.98
2019-02-19T12:42:46.976Z,11.63
2019-02-19T12:45:15.802Z,12.35
2019-02-19T12:47:44.399Z,12.40
2019-02-19T12:50:18.173Z,11.60
2019-02-19T12:52:46.756Z,12.98
2019-02-19T12:55:15.318Z,11.48
2019-02-19T12:57:43.912Z,11.70
2019-02-19T13:00:15.094Z,11.65
2019-02-19T13:02:44.203Z,10.00
2019-02-19T13:05:14.491Z,11.97
2019-02-19T13:07:43.081Z,11.33
2019-02-19T13:10:12.592Z,13.20
2019-02-19T13:12:41.177Z,13.03
2019-02-19T13:15:18.748Z,13.65
2019-02-19T13:17:47.335Z,13.88
2019-02-19T13:20:15.913Z,12.43
2019-02-19T13:22:44.497Z,14.03
2019-02-19T13:25:13.208Z,15.18
2019-02-19T13:27:41.859Z,12.63
2019-02-19T13:30:19.589Z,13.55
2019-02-19T13:32:48.185Z,11.30
2019-02-19T13:35:16.744Z,11.12
2019-02-19T13:37:45.335Z,10.20
2019-02-19T13:40:15.639Z,10.85
2019-02-19T13:42:44.226Z,11.43
2019-02-19T13:45:14.998Z,10.85
2019-02-19T13:47:43.592Z,10.43
2019-02-19T13:50:18.139Z,10.30
2019-02-19T13:53:06.688Z,10.18
2019-02-19T13:55:39.599Z,10.03
2019-02-19T13:58:08.179Z,9.05
2019-02-19T14:00:38.451Z,8.48
2019-02-19T14:03:07.033Z,9.05
2019-02-19T14:05:35.594Z,8.93
2019-02-19T14:08:04.175Z,9.58
2019-02-19T14:10:32.817Z,8.75
2019-02-19T14:13:01.404Z,8.53
2019-02-19T14:15:37.551Z,11.48
2019-02-19T14:18:07.777Z,10.53
2019-02-19T14:20:43.939Z,10.10
2019-02-19T14:23:30.616Z,9.23
2019-02-19T14:26:00.815Z,9.40
2019-02-19T14:28:49.278Z,10.20
2019-02-19T14:31:35.914Z,9.38
2019-02-19T14:34:22.579Z,10.10
2019-02-19T14:36:52.809Z,8.88
2019-02-19T14:39:25.963Z,8.93
2019-02-19T14:41:56.191Z,10.53
2019-02-19T14:44:26.399Z,9.28
2019-02-19T14:46:59.408Z,10.08
2019-02-19T14:49:37.252Z,9.33
2019-02-19T14:52:13.206Z,9.68
2019-02-19T14:54:43.415Z,8.55
2019-02-19T14:57:16.618Z,8.08
2019-02-19T14:59:53.018Z,8.20
2019-02-19T15:02:32.250Z,6.95
2019-02-19T15:05:05.142Z,8.50
2019-02-19T15:07:41.580Z,7.50
2019-02-19T15:10:11.855Z,7.72
2019-02-19T15:12:57.401Z,7.03
2019-02-19T15:15:33.478Z,7.87
2019-02-19T15:18:20.270Z,8.00
2019-02-19T15:20:50.484Z,7.53
2019-02-19T15:23:20.707Z,8.55
2019-02-19T15:25:53.690Z,8.43
2019-02-19T15:28:40.254Z,8.33
2019-02-19T15:31:26.723Z,10.40
2019-02-19T15:34:13.464Z,9.23
2019-02-19T15:36:58.727Z,8.80
2019-02-19T15:39:31.634Z,9.40
2019-02-19T15:42:13.175Z,10.30
2019-02-19T15:44:52.527Z,10.58
2019-02-19T15:47:31.687Z,8.88
2019-02-19T15:50:04.806Z,9.08
2019-02-19T15:52:53.115Z,8.88
2019-02-19T15:55:23.323Z,8.58
2019-02-19T15:58:10.067Z,8.55
2019-02-19T16:00:46.042Z,8.63
2019-02-19T16:03:28.525Z,8.60
2019-02-19T16:05:58.728Z,9.73
2019-02-19T16:08:28.960Z,9.35
2019-02-19T16:11:07.927Z,9.13
2019-02-19T16:13:44.134Z,8.60
2019-02-19T16:16:23.257Z,7.90
2019-02-19T16:19:05.476Z,8.85
2019-02-19T16:21:38.375Z,10.35
2019-02-19T16:24:17.822Z,10.35
2019-02-19T16:26:48.061Z,10.38
2019-02-19T16:29:18.255Z,9.90
2019-02-19T16:31:48.464Z,11.73
2019-02-19T16:34:21.859Z,10.23
2019-02-19T16:36:52.072Z,10.90
2019-02-19T16:39:38.838Z,10.95
2019-02-19T16:42:15.039Z,10.35
2019-02-19T16:44:45.276Z,10.03
2019-02-19T16:47:21.603Z,10.68
2019-02-19T16:49:51.825Z,11.40
2019-02-19T16:52:27.599Z,12.75
2019-02-19T16:55:00.500Z,11.22
2019-02-19T16:57:33.268Z,12.80
2019-02-19T17:00:12.663Z,14.23
2019-02-19T17:02:42.871Z,13.80
2019-02-19T17:05:15.625Z,13.45
2019-02-19T17:07:51.563Z,15.10
2019-02-19T17:10:21.776Z,15.03
2019-02-19T17:13:04.271Z,14.10
2019-02-19T17:15:46.658Z,13.48
2019-02-19T17:18:16.879Z,13.28
2019-02-19T17:20:55.875Z,14.18
2019-02-19T17:23:28.815Z,14.50
2019-02-19T17:26:01.744Z,15.35
2019-02-19T17:28:31.966Z,13.78
2019-02-19T17:31:08.112Z,13.18
2019-02-19T17:33:38.342Z,12.73
2019-02-19T17:36:08.551Z,14.65
2019-02-19T17:38:44.599Z,16.57
2019-02-19T17:41:17.918Z,13.75
2019-02-19T17:43:51.160Z,15.25
2019-02-19T17:46:27.095Z,15.65
2019-02-19T17:49:06.544Z,16.20
2019-02-19T17:51:42.679Z,15.90
2019-02-19T17:54:28.896Z,16.52
2019-02-19T17:57:05.107Z,16.77
2019-02-19T17:59:38.275Z,14.55
2019-02-19T18:02:20.277Z,14.58
2019-02-19T18:04:52.909Z,15.45
2019-02-19T18:07:26.024Z,14.55
2019-02-19T18:09:59.212Z,13.75
2019-02-19T18:12:44.465Z,17.20
2019-02-19T18:15:20.274Z,13.80
2019-02-19T18:18:06.736Z,16.40
2019-02-19T18:20:35.328Z,14.50
2019-02-19T18:23:03.890Z,16.60
2019-02-19T18:25:32.484Z,15.50
2019-02-19T18:28:01.056Z,14.03
2019-02-19T18:30:29.642Z,13.18
2019-02-19T18:32:58.210Z,15.53
2019-02-19T18:35:26.823Z,18.10
2019-02-19T18:37:55.395Z,17.75
2019-02-19T18:40:23.978Z,16.17
2019-02-19T18:42:52.543Z,15.00
2019-02-19T18:45:21.136Z,14.53
2019-02-19T18:47:49.700Z,12.45
2019-02-19T18:50:18.291Z,13.48
2019-02-19T18:52:46.863Z,12.30
2019-02-19T18:55:15.839Z,13.72
2019-02-19T18:57:44.751Z,13.85
2019-02-19T19:00:14.345Z,12.45
2019-02-19T19:02:42.954Z,13.18
2019-02-19T19:05:11.538Z,12.43
2019-02-19T19:07:40.178Z,13.13
2019-02-19T19:10:11.007Z,13.50
2019-02-19T19:12:39.570Z,14.35
2019-02-19T19:15:09.903Z,14.20
2019-02-19T19:17:38.479Z,14.75
2019-02-19T19:20:09.866Z,12.65
2019-02-19T19:22:38.442Z,13.60
2019-02-19T19:25:07.873Z,13.10
2019-02-19T19:27:36.435Z,13.68
2019-02-19T19:30:11.086Z,12.25
2019-02-19T19:32:39.655Z,12.25
2019-02-19T19:35:10.206Z,12.00
2019-02-19T19:37:38.755Z,12.25
2019-02-19T19:40:09.985Z,13.20
2019-02-19T19:42:38.546Z,13.80
2019-02-19T19:45:09.971Z,13.78
2019-02-19T19:47:38.535Z,11.83
2019-02-19T19:50:11.212Z,13.48
2019-02-19T19:52:39.772Z,12.80
2019-02-19T19:55:10.102Z,12.73
2019-02-19T19:57:39.060Z,13.05
2019-02-19T20:00:10.195Z,13.62
2019-02-19T20:02:39.335Z,12.45
2019-02-19T20:05:09.667Z,14.18
2019-02-19T20:07:38.232Z,12.50
2019-02-19T20:10:09.554Z,14.28
2019-02-19T20:12:38.118Z,14.35
2019-02-19T20:15:09.859Z,14.38
2019-02-19T20:17:38.422Z,14.75
2019-02-19T20:20:11.248Z,15.88
2019-02-19T20:22:39.808Z,12.60
2019-02-19T20:25:10.740Z,13.65
2019-02-19T20:27:39.307Z,15.70
2019-02-19T20:30:10.910Z,12.28
2019-02-19T20:32:39.472Z,16.12
2019-02-19T20:35:09.995Z,16.27
2019-02-19T20:37:38.573Z,14.25
2019-02-19T20:40:11.256Z,14.95
2019-02-19T20:42:39.895Z,14.18
2019-02-19T20:45:13.186Z,14.98
2019-02-19T20:47:41.755Z,14.45
2019-02-19T20:50:11.631Z,13.35
2019-02-19T20:52:40.142Z,14.33
2019-02-19T20:55:10.773Z,13.30
2019-02-19T20:57:39.335Z,14.50
2019-02-19T21:00:14.215Z,15.00
2019-02-19T21:02:42.787Z,15.08
2019-02-19T21:05:11.649Z,15.68
2019-02-19T21:07:40.212Z,14.25
2019-02-19T21:10:14.215Z,15.20
2019-02-19T21:12:42.779Z,14.10
2019-02-19T21:15:11.436Z,16.07
2019-02-19T21:17:39.999Z,14.68
2019-02-19T21:20:10.531Z,16.00
2019-02-19T21:22:39.095Z,15.00
2019-02-19T21:25:09.991Z,17.10
2019-02-19T21:27:38.558Z,16.40
2019-02-19T21:30:12.749Z,14.00
2019-02-19T21:32:41.308Z,16.17
2019-02-19T21:35:10.433Z,15.40
2019-02-19T21:37:39.004Z,14.85
2019-02-19T21:40:10.662Z,14.98
2019-02-19T21:42:39.967Z,14.05
2019-02-19T21:45:12.942Z,14.43
2019-02-19T21:47:41.536Z,14.98
2019-02-19T21:50:11.835Z,15.20
2019-02-19T21:52:40.401Z,15.32
2019-02-19T21:55:10.427Z,13.90
2019-02-19T21:57:38.991Z,15.03
2019-02-19T22:00:15.101Z,15.93
2019-02-19T22:02:43.670Z,16.37
2019-02-19T22:05:12.336Z,15.38
2019-02-19T22:07:40.832Z,14.58
2019-02-19T22:10:11.630Z,14.25
2019-02-19T22:12:40.219Z,15.45
2019-02-19T22:15:10.831Z,15.63
2019-02-19T22:17:39.419Z,16.20
2019-02-19T22:20:36.266Z,15.88
2019-02-19T22:23:05.369Z,16.67
2019-02-19T22:25:33.979Z,16.93
2019-02-19T22:28:02.526Z,16.27
2019-02-19T22:30:31.111Z,17.42
2019-02-19T22:32:59.670Z,17.35
2019-02-19T22:35:28.259Z,17.87
2019-02-19T22:37:56.831Z,16.87
2019-02-19T22:40:25.398Z,15.63
2019-02-19T22:42:53.982Z,16.07
2019-02-19T22:45:22.547Z,15.40
2019-02-19T22:47:53.467Z,15.65
2019-02-19T22:50:21.354Z,16.25
2019-02-19T22:52:49.934Z,16.52
2019-02-19T22:55:36.803Z,15.60
2019-02-19T22:58:05.380Z,15.18
2019-02-19T23:00:49.902Z,15.60
2019-02-19T23:03:26.102Z,15.48
2019-02-19T23:05:54.730Z,16.30
2019-02-19T23:08:23.492Z,15.15
2019-02-19T23:10:52.076Z,15.58
2019-02-19T23:13:20.639Z,16.45
2019-02-19T23:15:49.224Z,15.78
2019-02-19T23:18:17.786Z,16.20
2019-02-19T23:20:46.383Z,15.60
2019-02-19T23:23:14.950Z,16.17
2019-02-19T23:25:43.523Z,16.15
2019-02-19T23:28:12.115Z,16.30
2019-02-19T23:30:40.682Z,16.02
2019-02-19T23:33:09.271Z,16.15
2019-02-19T23:35:39.479Z,16.90
2019-02-19T23:38:08.068Z,16.57
2019-02-19T23:40:36.626Z,17.10
2019-02-19T23:43:05.211Z,17.75
2019-02-19T23:45:33.784Z,16.87
2019-02-19T23:48:02.367Z,15.65
2019-02-19T23:50:30.935Z,16.82
2019-02-19T23:52:59.526Z,17.45
2019-02-19T23:55:28.086Z,19.95
2019-02-19T23:57:56.684Z,17.75
